sensor_id;sensor_type;location;lat;lon;timestamp;P1;durP1;ratioP1;P2;durP2;ratioP2
21458;SDS011;10891;49.350;19.386;2023-07-20T00:02:03;15.43;;;7.95;;
21458;SDS011;10891;49.350;19.386;2023-07-20T00:04:32;15.23;;;7.90;;
21458;SDS011;10891;49.350;19.386;2023-07-20T00:06:59;22.90;;;7.90;;
21458;SDS011;10891;49.350;19.386;2023-07-20T00:09:27;20.52;;;7.65;;
21458;SDS011;10891;49.350;19.386;2023-07-20T00:11:54;14.68;;;7.53;;
21458;SDS011;10891;49.350;19.386;2023-07-20T00:14:21;16.50;;;7.57;;
21458;SDS011;10891;49.350;19.386;2023-07-20T00:16:49;11.82;;;6.82;;
21458;SDS011;10891;49.350;19.386;2023-07-20T00:19:22;10.98;;;6.88;;
21458;SDS011;10891;49.350;19.386;2023-07-20T00:21:50;16.50;;;7.45;;
21458;SDS011;10891;49.350;19.386;2023-07-20T00:24:17;12.48;;;6.97;;
21458;SDS011;10891;49.350;19.386;2023-07-20T00:26:44;15.23;;;7.25;;
21458;SDS011;10891;49.350;19.386;2023-07-20T00:29:12;13.15;;;6.50;;
21458;SDS011;10891;49.350;19.386;2023-07-20T00:31:39;14.60;;;6.25;;
21458;SDS011;10891;49.350;19.386;2023-07-20T00:34:07;13.90;;;5.30;;
21458;SDS011;10891;49.350;19.386;2023-07-20T00:36:35;10.60;;;5.57;;
21458;SDS011;10891;49.350;19.386;2023-07-20T00:39:03;22.83;;;6.05;;
21458;SDS011;10891;49.350;19.386;2023-07-20T00:41:30;13.65;;;6.00;;
21458;SDS011;10891;49.350;19.386;2023-07-20T00:43:58;12.18;;;6.30;;
21458;SDS011;10891;49.350;19.386;2023-07-20T00:46:25;13.45;;;5.53;;
21458;SDS011;10891;49.350;19.386;2023-07-20T00:48:52;14.43;;;5.55;;
21458;SDS011;10891;49.350;19.386;2023-07-20T00:51:20;12.20;;;5.85;;
21458;SDS011;10891;49.350;19.386;2023-07-20T00:53:49;14.20;;;5.43;;
21458;SDS011;10891;49.350;19.386;2023-07-20T00:56:16;17.52;;;5.90;;
21458;SDS011;10891;49.350;19.386;2023-07-20T00:58:43;8.80;;;5.70;;
21458;SDS011;10891;49.350;19.386;2023-07-20T01:01:10;10.55;;;5.95;;
21458;SDS011;10891;49.350;19.386;2023-07-20T01:03:39;13.48;;;6.78;;
21458;SDS011;10891;49.350;19.386;2023-07-20T01:06:09;13.98;;;6.18;;
21458;SDS011;10891;49.350;19.386;2023-07-20T01:08:43;17.30;;;6.13;;
21458;SDS011;10891;49.350;19.386;2023-07-20T01:11:15;17.08;;;7.13;;
21458;SDS011;10891;49.350;19.386;2023-07-20T01:13:43;12.63;;;5.82;;
21458;SDS011;10891;49.350;19.386;2023-07-20T01:16:11;14.32;;;6.60;;
21458;SDS011;10891;49.350;19.386;2023-07-20T01:18:38;18.40;;;6.35;;
21458;SDS011;10891;49.350;19.386;2023-07-20T01:21:06;16.00;;;6.55;;
21458;SDS011;10891;49.350;19.386;2023-07-20T01:23:44;15.68;;;6.40;;
21458;SDS011;10891;49.350;19.386;2023-07-20T01:26:27;24.42;;;7.88;;
21458;SDS011;10891;49.350;19.386;2023-07-20T01:29:11;22.38;;;7.95;;
21458;SDS011;10891;49.350;19.386;2023-07-20T01:31:41;11.55;;;6.25;;
21458;SDS011;10891;49.350;19.386;2023-07-20T01:34:08;16.98;;;7.10;;
21458;SDS011;10891;49.350;19.386;2023-07-20T01:36:37;14.23;;;7.57;;
21458;SDS011;10891;49.350;19.386;2023-07-20T01:39:04;15.63;;;7.47;;
21458;SDS011;10891;49.350;19.386;2023-07-20T01:41:33;17.15;;;7.60;;
21458;SDS011;10891;49.350;19.386;2023-07-20T01:44:00;14.98;;;7.47;;
21458;SDS011;10891;49.350;19.386;2023-07-20T01:46:27;17.50;;;6.93;;
21458;SDS011;10891;49.350;19.386;2023-07-20T01:48:57;13.80;;;7.57;;
21458;SDS011;10891;49.350;19.386;2023-07-20T01:51:24;15.45;;;6.13;;
21458;SDS011;10891;49.350;19.386;2023-07-20T01:53:51;13.45;;;7.18;;
21458;SDS011;10891;49.350;19.386;2023-07-20T01:56:18;15.38;;;7.85;;
21458;SDS011;10891;49.350;19.386;2023-07-20T01:58:45;21.88;;;7.13;;
21458;SDS011;10891;49.350;19.386;2023-07-20T02:01:12;16.08;;;6.63;;
21458;SDS011;10891;49.350;19.386;2023-07-20T02:03:40;14.95;;;7.25;;
21458;SDS011;10891;49.350;19.386;2023-07-20T02:06:08;10.65;;;7.10;;
21458;SDS011;10891;49.350;19.386;2023-07-20T02:08:35;14.38;;;7.47;;
21458;SDS011;10891;49.350;19.386;2023-07-20T02:11:02;12.40;;;6.97;;
21458;SDS011;10891;49.350;19.386;2023-07-20T02:13:30;11.82;;;7.50;;
21458;SDS011;10891;49.350;19.386;2023-07-20T02:15:57;9.43;;;7.47;;
21458;SDS011;10891;49.350;19.386;2023-07-20T02:18:24;18.40;;;7.78;;
21458;SDS011;10891;49.350;19.386;2023-07-20T02:20:52;11.45;;;7.53;;
21458;SDS011;10891;49.350;19.386;2023-07-20T02:23:21;15.75;;;8.30;;
21458;SDS011;10891;49.350;19.386;2023-07-20T02:25:48;15.48;;;8.07;;
21458;SDS011;10891;49.350;19.386;2023-07-20T02:28:15;19.02;;;8.38;;
21458;SDS011;10891;49.350;19.386;2023-07-20T02:30:43;16.65;;;8.45;;
21458;SDS011;10891;49.350;19.386;2023-07-20T02:33:10;13.60;;;8.15;;
21458;SDS011;10891;49.350;19.386;2023-07-20T02:35:37;14.82;;;8.20;;
21458;SDS011;10891;49.350;19.386;2023-07-20T02:38:04;15.65;;;7.57;;
21458;SDS011;10891;49.350;19.386;2023-07-20T02:43:01;12.30;;;7.25;;
21458;SDS011;10891;49.350;19.386;2023-07-20T02:45:28;11.20;;;7.57;;
21458;SDS011;10891;49.350;19.386;2023-07-20T02:47:56;15.73;;;9.18;;
21458;SDS011;10891;49.350;19.386;2023-07-20T02:50:23;10.18;;;7.35;;
21458;SDS011;10891;49.350;19.386;2023-07-20T02:52:50;12.20;;;7.32;;
21458;SDS011;10891;49.350;19.386;2023-07-20T02:55:17;17.20;;;9.13;;
21458;SDS011;10891;49.350;19.386;2023-07-20T02:57:45;14.88;;;7.57;;
21458;SDS011;10891;49.350;19.386;2023-07-20T03:00:14;11.57;;;7.07;;
21458;SDS011;10891;49.350;19.386;2023-07-20T03:02:44;15.32;;;7.85;;
21458;SDS011;10891;49.350;19.386;2023-07-20T03:05:12;16.27;;;7.75;;
21458;SDS011;10891;49.350;19.386;2023-07-20T03:07:40;15.73;;;6.88;;
21458;SDS011;10891;49.350;19.386;2023-07-20T03:10:08;13.73;;;7.75;;
21458;SDS011;10891;49.350;19.386;2023-07-20T03:12:36;15.98;;;7.88;;
21458;SDS011;10891;49.350;19.386;2023-07-20T03:15:03;15.10;;;7.75;;
21458;SDS011;10891;49.350;19.386;2023-07-20T03:17:33;18.25;;;7.20;;
21458;SDS011;10891;49.350;19.386;2023-07-20T03:20:00;12.32;;;7.15;;
21458;SDS011;10891;49.350;19.386;2023-07-20T03:22:28;12.05;;;7.78;;
21458;SDS011;10891;49.350;19.386;2023-07-20T03:24:55;14.02;;;7.70;;
21458;SDS011;10891;49.350;19.386;2023-07-20T03:27:22;12.02;;;7.80;;
21458;SDS011;10891;49.350;19.386;2023-07-20T03:29:50;11.90;;;8.00;;
21458;SDS011;10891;49.350;19.386;2023-07-20T03:32:17;13.55;;;7.00;;
21458;SDS011;10891;49.350;19.386;2023-07-20T03:34:45;11.43;;;7.80;;
21458;SDS011;10891;49.350;19.386;2023-07-20T03:37:13;13.05;;;7.35;;
21458;SDS011;10891;49.350;19.386;2023-07-20T03:39:40;11.77;;;7.40;;
21458;SDS011;10891;49.350;19.386;2023-07-20T03:42:07;13.45;;;7.43;;
21458;SDS011;10891;49.350;19.386;2023-07-20T03:44:34;10.25;;;6.90;;
21458;SDS011;10891;49.350;19.386;2023-07-20T03:47:02;15.65;;;7.25;;
21458;SDS011;10891;49.350;19.386;2023-07-20T03:49:30;12.52;;;7.50;;
21458;SDS011;10891;49.350;19.386;2023-07-20T03:51:58;8.68;;;6.60;;
21458;SDS011;10891;49.350;19.386;2023-07-20T03:54:26;12.73;;;6.78;;
21458;SDS011;10891;49.350;19.386;2023-07-20T03:56:53;13.50;;;7.07;;
21458;SDS011;10891;49.350;19.386;2023-07-20T03:59:21;15.27;;;7.43;;
21458;SDS011;10891;49.350;19.386;2023-07-20T04:01:48;13.93;;;7.00;;
21458;SDS011;10891;49.350;19.386;2023-07-20T04:04:15;13.18;;;6.50;;
21458;SDS011;10891;49.350;19.386;2023-07-20T04:06:43;10.10;;;5.30;;
21458;SDS011;10891;49.350;19.386;2023-07-20T04:09:11;16.35;;;6.38;;
21458;SDS011;10891;49.350;19.386;2023-07-20T04:11:39;12.55;;;5.32;;
21458;SDS011;10891;49.350;19.386;2023-07-20T04:14:06;12.13;;;5.22;;
21458;SDS011;10891;49.350;19.386;2023-07-20T04:16:34;12.63;;;5.22;;
21458;SDS011;10891;49.350;19.386;2023-07-20T04:19:02;17.73;;;5.55;;
21458;SDS011;10891;49.350;19.386;2023-07-20T04:21:29;15.88;;;5.75;;
21458;SDS011;10891;49.350;19.386;2023-07-20T04:23:57;13.90;;;5.40;;
21458;SDS011;10891;49.350;19.386;2023-07-20T04:26:26;11.27;;;4.90;;
21458;SDS011;10891;49.350;19.386;2023-07-20T04:28:53;9.45;;;4.90;;
21458;SDS011;10891;49.350;19.386;2023-07-20T04:31:20;9.45;;;4.93;;
21458;SDS011;10891;49.350;19.386;2023-07-20T04:33:47;9.73;;;4.70;;
21458;SDS011;10891;49.350;19.386;2023-07-20T04:36:15;8.77;;;5.05;;
21458;SDS011;10891;49.350;19.386;2023-07-20T04:38:44;10.68;;;5.18;;
21458;SDS011;10891;49.350;19.386;2023-07-20T04:41:11;7.38;;;4.80;;
21458;SDS011;10891;49.350;19.386;2023-07-20T04:43:42;9.40;;;5.05;;
21458;SDS011;10891;49.350;19.386;2023-07-20T04:46:09;9.70;;;5.57;;
21458;SDS011;10891;49.350;19.386;2023-07-20T04:48:36;8.07;;;4.72;;
21458;SDS011;10891;49.350;19.386;2023-07-20T04:51:03;10.05;;;4.85;;
21458;SDS011;10891;49.350;19.386;2023-07-20T04:53:30;7.72;;;4.78;;
21458;SDS011;10891;49.350;19.386;2023-07-20T04:55:58;7.25;;;4.43;;
21458;SDS011;10891;49.350;19.386;2023-07-20T04:58:25;9.65;;;4.20;;
21458;SDS011;10891;49.350;19.386;2023-07-20T05:00:53;8.23;;;3.85;;
21458;SDS011;10891;49.350;19.386;2023-07-20T05:03:21;7.30;;;3.58;;
21458;SDS011;10891;49.350;19.386;2023-07-20T05:05:48;7.32;;;3.50;;
21458;SDS011;10891;49.350;19.386;2023-07-20T05:08:15;5.95;;;3.72;;
21458;SDS011;10891;49.350;19.386;2023-07-20T05:10:42;8.30;;;3.50;;
21458;SDS011;10891;49.350;19.386;2023-07-20T05:13:10;6.40;;;3.20;;
21458;SDS011;10891;49.350;19.386;2023-07-20T05:15:37;6.45;;;3.10;;
21458;SDS011;10891;49.350;19.386;2023-07-20T05:18:05;5.90;;;3.17;;
21458;SDS011;10891;49.350;19.386;2023-07-20T05:20:33;8.43;;;3.15;;
21458;SDS011;10891;49.350;19.386;2023-07-20T05:23:02;4.82;;;3.17;;
21458;SDS011;10891;49.350;19.386;2023-07-20T05:25:29;6.50;;;2.90;;
21458;SDS011;10891;49.350;19.386;2023-07-20T05:27:56;7.53;;;3.15;;
21458;SDS011;10891;49.350;19.386;2023-07-20T05:30:23;6.03;;;2.67;;
21458;SDS011;10891;49.350;19.386;2023-07-20T05:32:51;7.85;;;2.83;;
21458;SDS011;10891;49.350;19.386;2023-07-20T05:35:21;4.93;;;2.70;;
21458;SDS011;10891;49.350;19.386;2023-07-20T05:37:48;6.00;;;2.65;;
21458;SDS011;10891;49.350;19.386;2023-07-20T05:40:15;5.70;;;2.65;;
21458;SDS011;10891;49.350;19.386;2023-07-20T05:42:44;5.53;;;2.72;;
21458;SDS011;10891;49.350;19.386;2023-07-20T05:45:13;5.18;;;2.80;;
21458;SDS011;10891;49.350;19.386;2023-07-20T05:47:41;7.63;;;2.45;;
21458;SDS011;10891;49.350;19.386;2023-07-20T05:50:08;6.55;;;2.63;;
21458;SDS011;10891;49.350;19.386;2023-07-20T05:52:37;4.55;;;2.63;;
21458;SDS011;10891;49.350;19.386;2023-07-20T05:55:05;4.82;;;2.88;;
21458;SDS011;10891;49.350;19.386;2023-07-20T05:57:33;4.90;;;3.00;;
21458;SDS011;10891;49.350;19.386;2023-07-20T06:00:00;4.75;;;3.00;;
21458;SDS011;10891;49.350;19.386;2023-07-20T06:02:28;4.15;;;2.15;;
21458;SDS011;10891;49.350;19.386;2023-07-20T06:04:57;5.40;;;2.78;;
21458;SDS011;10891;49.350;19.386;2023-07-20T06:07:25;5.00;;;2.40;;
21458;SDS011;10891;49.350;19.386;2023-07-20T06:09:53;5.95;;;2.78;;
21458;SDS011;10891;49.350;19.386;2023-07-20T06:12:20;5.25;;;2.63;;
21458;SDS011;10891;49.350;19.386;2023-07-20T06:14:47;3.92;;;2.60;;
21458;SDS011;10891;49.350;19.386;2023-07-20T06:17:15;5.85;;;2.80;;
21458;SDS011;10891;49.350;19.386;2023-07-20T06:19:42;8.10;;;2.67;;
21458;SDS011;10891;49.350;19.386;2023-07-20T06:22:09;5.80;;;2.72;;
21458;SDS011;10891;49.350;19.386;2023-07-20T06:24:36;5.93;;;2.40;;
21458;SDS011;10891;49.350;19.386;2023-07-20T06:27:05;5.50;;;2.35;;
21458;SDS011;10891;49.350;19.386;2023-07-20T06:29:32;4.45;;;2.60;;
21458;SDS011;10891;49.350;19.386;2023-07-20T06:32:00;4.50;;;2.42;;
21458;SDS011;10891;49.350;19.386;2023-07-20T06:34:27;7.28;;;2.50;;
21458;SDS011;10891;49.350;19.386;2023-07-20T06:36:54;4.53;;;2.88;;
21458;SDS011;10891;49.350;19.386;2023-07-20T06:39:21;5.63;;;2.85;;
21458;SDS011;10891;49.350;19.386;2023-07-20T06:41:48;6.63;;;2.88;;
21458;SDS011;10891;49.350;19.386;2023-07-20T06:44:17;4.20;;;2.67;;
21458;SDS011;10891;49.350;19.386;2023-07-20T06:46:44;4.78;;;2.58;;
21458;SDS011;10891;49.350;19.386;2023-07-20T06:49:15;7.18;;;2.45;;
21458;SDS011;10891;49.350;19.386;2023-07-20T06:51:50;6.10;;;2.90;;
21458;SDS011;10891;49.350;19.386;2023-07-20T06:54:17;5.25;;;2.20;;
21458;SDS011;10891;49.350;19.386;2023-07-20T06:56:44;3.60;;;2.40;;
21458;SDS011;10891;49.350;19.386;2023-07-20T06:59:12;4.93;;;2.58;;
21458;SDS011;10891;49.350;19.386;2023-07-20T07:01:40;10.00;;;2.80;;
21458;SDS011;10891;49.350;19.386;2023-07-20T07:04:07;5.95;;;1.95;;
21458;SDS011;10891;49.350;19.386;2023-07-20T07:06:35;8.00;;;2.75;;
21458;SDS011;10891;49.350;19.386;2023-07-20T07:09:02;4.68;;;2.50;;
21458;SDS011;10891;49.350;19.386;2023-07-20T07:11:33;9.40;;;2.80;;
21458;SDS011;10891;49.350;19.386;2023-07-20T07:14:00;4.95;;;3.08;;
21458;SDS011;10891;49.350;19.386;2023-07-20T07:16:27;5.43;;;2.42;;
21458;SDS011;10891;49.350;19.386;2023-07-20T07:18:56;5.07;;;2.40;;
21458;SDS011;10891;49.350;19.386;2023-07-20T07:21:24;6.35;;;2.53;;
21458;SDS011;10891;49.350;19.386;2023-07-20T07:23:51;6.25;;;2.85;;
21458;SDS011;10891;49.350;19.386;2023-07-20T07:26:22;5.85;;;2.75;;
21458;SDS011;10891;49.350;19.386;2023-07-20T07:28:50;5.28;;;2.50;;
21458;SDS011;10891;49.350;19.386;2023-07-20T07:31:17;5.95;;;2.63;;
21458;SDS011;10891;49.350;19.386;2023-07-20T07:33:44;4.80;;;2.67;;
21458;SDS011;10891;49.350;19.386;2023-07-20T07:36:13;8.23;;;3.10;;
21458;SDS011;10891;49.350;19.386;2023-07-20T07:38:40;6.13;;;3.00;;
21458;SDS011;10891;49.350;19.386;2023-07-20T07:41:08;4.13;;;2.78;;
21458;SDS011;10891;49.350;19.386;2023-07-20T07:43:35;5.07;;;2.58;;
21458;SDS011;10891;49.350;19.386;2023-07-20T07:46:03;6.40;;;2.90;;
21458;SDS011;10891;49.350;19.386;2023-07-20T07:48:30;5.32;;;2.80;;
21458;SDS011;10891;49.350;19.386;2023-07-20T07:50:57;5.18;;;3.25;;
21458;SDS011;10891;49.350;19.386;2023-07-20T07:53:26;3.88;;;2.35;;
21458;SDS011;10891;49.350;19.386;2023-07-20T07:55:53;6.43;;;3.20;;
21458;SDS011;10891;49.350;19.386;2023-07-20T07:58:20;5.53;;;3.40;;
21458;SDS011;10891;49.350;19.386;2023-07-20T08:00:48;4.65;;;2.55;;
21458;SDS011;10891;49.350;19.386;2023-07-20T08:03:15;5.10;;;2.70;;
21458;SDS011;10891;49.350;19.386;2023-07-20T08:05:43;7.88;;;2.78;;
21458;SDS011;10891;49.350;19.386;2023-07-20T08:08:11;6.85;;;2.70;;
21458;SDS011;10891;49.350;19.386;2023-07-20T08:10:40;6.88;;;2.53;;
21458;SDS011;10891;49.350;19.386;2023-07-20T08:13:07;5.32;;;2.72;;
21458;SDS011;10891;49.350;19.386;2023-07-20T08:15:34;6.30;;;2.92;;
21458;SDS011;10891;49.350;19.386;2023-07-20T08:18:02;5.95;;;2.40;;
21458;SDS011;10891;49.350;19.386;2023-07-20T08:20:29;5.70;;;2.42;;
21458;SDS011;10891;49.350;19.386;2023-07-20T08:22:57;6.10;;;2.38;;
21458;SDS011;10891;49.350;19.386;2023-07-20T08:25:25;4.20;;;2.85;;
21458;SDS011;10891;49.350;19.386;2023-07-20T08:27:54;5.65;;;3.35;;
21458;SDS011;10891;49.350;19.386;2023-07-20T08:30:22;5.28;;;3.38;;
21458;SDS011;10891;49.350;19.386;2023-07-20T08:32:49;5.65;;;2.75;;
21458;SDS011;10891;49.350;19.386;2023-07-20T08:35:16;7.43;;;2.67;;
21458;SDS011;10891;49.350;19.386;2023-07-20T08:37:44;4.80;;;2.60;;
21458;SDS011;10891;49.350;19.386;2023-07-20T08:40:11;5.25;;;2.67;;
21458;SDS011;10891;49.350;19.386;2023-07-20T08:42:39;3.97;;;2.50;;
21458;SDS011;10891;49.350;19.386;2023-07-20T08:45:07;5.00;;;2.72;;
21458;SDS011;10891;49.350;19.386;2023-07-20T08:47:35;5.25;;;3.08;;
21458;SDS011;10891;49.350;19.386;2023-07-20T08:50:02;6.38;;;2.88;;
21458;SDS011;10891;49.350;19.386;2023-07-20T08:52:33;6.57;;;2.80;;
21458;SDS011;10891;49.350;19.386;2023-07-20T08:55:01;5.93;;;2.30;;
21458;SDS011;10891;49.350;19.386;2023-07-20T08:57:30;5.80;;;2.65;;
21458;SDS011;10891;49.350;19.386;2023-07-20T09:00:01;8.05;;;2.15;;
21458;SDS011;10891;49.350;19.386;2023-07-20T09:02:33;6.20;;;2.67;;
21458;SDS011;10891;49.350;19.386;2023-07-20T09:05:02;5.30;;;2.60;;
21458;SDS011;10891;49.350;19.386;2023-07-20T09:07:30;3.92;;;2.40;;
21458;SDS011;10891;49.350;19.386;2023-07-20T09:09:58;4.47;;;2.10;;
21458;SDS011;10891;49.350;19.386;2023-07-20T09:12:30;5.55;;;1.88;;
21458;SDS011;10891;49.350;19.386;2023-07-20T09:14:58;6.05;;;2.28;;
21458;SDS011;10891;49.350;19.386;2023-07-20T09:17:26;3.35;;;2.40;;
21458;SDS011;10891;49.350;19.386;2023-07-20T09:19:55;3.50;;;2.30;;
21458;SDS011;10891;49.350;19.386;2023-07-20T09:22:23;3.13;;;1.85;;
21458;SDS011;10891;49.350;19.386;2023-07-20T09:24:56;5.72;;;2.67;;
21458;SDS011;10891;49.350;19.386;2023-07-20T09:27:29;3.78;;;2.40;;
21458;SDS011;10891;49.350;19.386;2023-07-20T09:30:02;6.50;;;1.98;;
21458;SDS011;10891;49.350;19.386;2023-07-20T09:32:32;3.70;;;2.17;;
21458;SDS011;10891;49.350;19.386;2023-07-20T09:35:07;2.15;;;1.83;;
21458;SDS011;10891;49.350;19.386;2023-07-20T09:37:39;3.42;;;2.28;;
21458;SDS011;10891;49.350;19.386;2023-07-20T09:40:07;8.13;;;1.80;;
21458;SDS011;10891;49.350;19.386;2023-07-20T09:42:36;3.60;;;2.30;;
21458;SDS011;10891;49.350;19.386;2023-07-20T09:45:06;4.80;;;2.22;;
21458;SDS011;10891;49.350;19.386;2023-07-20T09:47:35;3.00;;;2.08;;
21458;SDS011;10891;49.350;19.386;2023-07-20T09:50:03;4.10;;;1.90;;
21458;SDS011;10891;49.350;19.386;2023-07-20T09:52:36;3.70;;;1.92;;
21458;SDS011;10891;49.350;19.386;2023-07-20T09:55:05;3.03;;;2.00;;
21458;SDS011;10891;49.350;19.386;2023-07-20T09:57:32;2.97;;;1.88;;
21458;SDS011;10891;49.350;19.386;2023-07-20T10:00:00;4.80;;;2.13;;
21458;SDS011;10891;49.350;19.386;2023-07-20T10:02:33;2.08;;;1.70;;
21458;SDS011;10891;49.350;19.386;2023-07-20T10:05:02;2.25;;;1.60;;
21458;SDS011;10891;49.350;19.386;2023-07-20T10:07:29;4.22;;;1.88;;
21458;SDS011;10891;49.350;19.386;2023-07-20T10:09:59;2.47;;;1.70;;
21458;SDS011;10891;49.350;19.386;2023-07-20T10:12:28;2.72;;;1.60;;
21458;SDS011;10891;49.350;19.386;2023-07-20T10:14:59;3.92;;;1.98;;
21458;SDS011;10891;49.350;19.386;2023-07-20T10:17:26;4.32;;;1.80;;
21458;SDS011;10891;49.350;19.386;2023-07-20T10:19:54;3.55;;;1.38;;
21458;SDS011;10891;49.350;19.386;2023-07-20T10:22:25;2.60;;;1.33;;
21458;SDS011;10891;49.350;19.386;2023-07-20T10:24:53;1.80;;;1.40;;
21458;SDS011;10891;49.350;19.386;2023-07-20T10:27:25;2.40;;;1.60;;
21458;SDS011;10891;49.350;19.386;2023-07-20T10:29:53;2.90;;;1.83;;
21458;SDS011;10891;49.350;19.386;2023-07-20T10:32:21;2.72;;;1.70;;
21458;SDS011;10891;49.350;19.386;2023-07-20T10:34:50;3.50;;;1.77;;
21458;SDS011;10891;49.350;19.386;2023-07-20T10:42:48;3.78;;;1.77;;
21458;SDS011;10891;49.350;19.386;2023-07-20T10:45:16;6.00;;;1.67;;
21458;SDS011;10891;49.350;19.386;2023-07-20T10:47:45;2.30;;;1.40;;
21458;SDS011;10891;49.350;19.386;2023-07-20T10:50:12;3.55;;;1.80;;
21458;SDS011;10891;49.350;19.386;2023-07-20T10:52:39;3.10;;;1.38;;
21458;SDS011;10891;49.350;19.386;2023-07-20T10:55:14;2.35;;;1.27;;
21458;SDS011;10891;49.350;19.386;2023-07-20T10:57:41;5.13;;;1.60;;
21458;SDS011;10891;49.350;19.386;2023-07-20T11:00:11;4.10;;;1.55;;
21458;SDS011;10891;49.350;19.386;2023-07-20T11:02:45;2.47;;;1.58;;
21458;SDS011;10891;49.350;19.386;2023-07-20T11:05:32;1.92;;;1.30;;
21458;SDS011;10891;49.350;19.386;2023-07-20T11:07:59;6.93;;;1.98;;
21458;SDS011;10891;49.350;19.386;2023-07-20T11:10:27;3.00;;;1.42;;
21458;SDS011;10891;49.350;19.386;2023-07-20T11:18:25;4.88;;;1.70;;
21458;SDS011;10891;49.350;19.386;2023-07-20T11:20:52;3.83;;;1.58;;
21458;SDS011;10891;49.350;19.386;2023-07-20T11:23:20;2.03;;;1.60;;
21458;SDS011;10891;49.350;19.386;2023-07-20T11:25:48;6.68;;;1.77;;
21458;SDS011;10891;49.350;19.386;2023-07-20T11:28:16;2.33;;;1.20;;
21458;SDS011;10891;49.350;19.386;2023-07-20T11:30:43;6.07;;;1.55;;
21458;SDS011;10891;49.350;19.386;2023-07-20T11:33:10;4.30;;;1.50;;
21458;SDS011;10891;49.350;19.386;2023-07-20T11:35:43;2.10;;;1.27;;
21458;SDS011;10891;49.350;19.386;2023-07-20T11:38:12;2.97;;;1.30;;
21458;SDS011;10891;49.350;19.386;2023-07-20T11:40:42;4.22;;;1.58;;
21458;SDS011;10891;49.350;19.386;2023-07-20T11:43:09;3.83;;;1.58;;
21458;SDS011;10891;49.350;19.386;2023-07-20T11:45:38;4.35;;;1.80;;
21458;SDS011;10891;49.350;19.386;2023-07-20T11:48:06;2.55;;;1.50;;
21458;SDS011;10891;49.350;19.386;2023-07-20T11:50:38;3.67;;;1.27;;
21458;SDS011;10891;49.350;19.386;2023-07-20T11:53:08;1.83;;;1.40;;
21458;SDS011;10891;49.350;19.386;2023-07-20T11:55:35;4.28;;;1.70;;
21458;SDS011;10891;49.350;19.386;2023-07-20T11:58:04;7.40;;;1.58;;
21458;SDS011;10891;49.350;19.386;2023-07-20T12:00:32;4.55;;;2.30;;
21458;SDS011;10891;49.350;19.386;2023-07-20T12:02:59;7.40;;;1.63;;
21458;SDS011;10891;49.350;19.386;2023-07-20T12:05:27;3.75;;;1.42;;
21458;SDS011;10891;49.350;19.386;2023-07-20T12:07:54;4.18;;;1.55;;
21458;SDS011;10891;49.350;19.386;2023-07-20T12:10:26;2.03;;;1.60;;
21458;SDS011;10891;49.350;19.386;2023-07-20T12:12:54;1.52;;;1.30;;
21458;SDS011;10891;49.350;19.386;2023-07-20T12:15:22;1.73;;;1.40;;
21458;SDS011;10891;49.350;19.386;2023-07-20T12:17:49;4.55;;;1.70;;
21458;SDS011;10891;49.350;19.386;2023-07-20T12:20:24;1.67;;;1.23;;
21458;SDS011;10891;49.350;19.386;2023-07-20T12:22:52;3.83;;;1.55;;
21458;SDS011;10891;49.350;19.386;2023-07-20T12:25:19;1.58;;;1.27;;
21458;SDS011;10891;49.350;19.386;2023-07-20T12:27:48;2.88;;;1.67;;
21458;SDS011;10891;49.350;19.386;2023-07-20T12:30:16;3.75;;;2.10;;
21458;SDS011;10891;49.350;19.386;2023-07-20T12:32:43;3.50;;;1.55;;
21458;SDS011;10891;49.350;19.386;2023-07-20T12:35:10;5.93;;;1.40;;
21458;SDS011;10891;49.350;19.386;2023-07-20T12:37:39;12.85;;;2.95;;
21458;SDS011;10891;49.350;19.386;2023-07-20T12:40:07;5.90;;;1.40;;
21458;SDS011;10891;49.350;19.386;2023-07-20T12:42:36;5.68;;;1.80;;
21458;SDS011;10891;49.350;19.386;2023-07-20T12:45:06;6.25;;;1.70;;
21458;SDS011;10891;49.350;19.386;2023-07-20T12:47:33;3.08;;;1.30;;
21458;SDS011;10891;49.350;19.386;2023-07-20T12:50:00;2.88;;;1.67;;
21458;SDS011;10891;49.350;19.386;2023-07-20T12:52:29;4.88;;;1.63;;
21458;SDS011;10891;49.350;19.386;2023-07-20T12:54:56;5.85;;;1.88;;
21458;SDS011;10891;49.350;19.386;2023-07-20T12:57:26;2.50;;;1.40;;
21458;SDS011;10891;49.350;19.386;2023-07-20T12:59:53;2.42;;;1.55;;
21458;SDS011;10891;49.350;19.386;2023-07-20T13:02:21;3.53;;;1.60;;
21458;SDS011;10891;49.350;19.386;2023-07-20T13:04:49;6.22;;;2.10;;
21458;SDS011;10891;49.350;19.386;2023-07-20T13:07:16;2.85;;;1.60;;
21458;SDS011;10891;49.350;19.386;2023-07-20T13:09:43;5.53;;;1.77;;
21458;SDS011;10891;49.350;19.386;2023-07-20T13:12:10;3.30;;;1.90;;
21458;SDS011;10891;49.350;19.386;2023-07-20T13:14:39;3.13;;;1.70;;
21458;SDS011;10891;49.350;19.386;2023-07-20T13:17:07;3.15;;;1.70;;
21458;SDS011;10891;49.350;19.386;2023-07-20T13:19:36;4.10;;;1.88;;
21458;SDS011;10891;49.350;19.386;2023-07-20T13:22:05;2.80;;;1.67;;
21458;SDS011;10891;49.350;19.386;2023-07-20T13:24:32;4.28;;;1.65;;
21458;SDS011;10891;49.350;19.386;2023-07-20T13:27:00;45.08;;;4.97;;
21458;SDS011;10891;49.350;19.386;2023-07-20T13:29:28;15.23;;;2.90;;
21458;SDS011;10891;49.350;19.386;2023-07-20T13:31:57;2.58;;;1.80;;
21458;SDS011;10891;49.350;19.386;2023-07-20T13:34:25;25.95;;;4.07;;
21458;SDS011;10891;49.350;19.386;2023-07-20T13:36:54;51.88;;;5.53;;
21458;SDS011;10891;49.350;19.386;2023-07-20T13:39:21;2.78;;;1.73;;
21458;SDS011;10891;49.350;19.386;2023-07-20T13:41:52;3.17;;;2.00;;
21458;SDS011;10891;49.350;19.386;2023-07-20T13:44:19;5.05;;;2.03;;
21458;SDS011;10891;49.350;19.386;2023-07-20T13:46:46;18.88;;;2.90;;
21458;SDS011;10891;49.350;19.386;2023-07-20T13:49:13;197.27;;;16.08;;
21458;SDS011;10891;49.350;19.386;2023-07-20T13:51:41;3.88;;;2.20;;
21458;SDS011;10891;49.350;19.386;2023-07-20T13:54:09;37.97;;;5.57;;
21458;SDS011;10891;49.350;19.386;2023-07-20T13:56:37;109.22;;;10.05;;
21458;SDS011;10891;49.350;19.386;2023-07-20T13:59:04;7.07;;;1.90;;
21458;SDS011;10891;49.350;19.386;2023-07-20T14:01:31;5.05;;;2.20;;
21458;SDS011;10891;49.350;19.386;2023-07-20T14:03:59;15.85;;;2.17;;
21458;SDS011;10891;49.350;19.386;2023-07-20T14:06:29;7.05;;;1.75;;
21458;SDS011;10891;49.350;19.386;2023-07-20T14:08:56;9.63;;;2.50;;
21458;SDS011;10891;49.350;19.386;2023-07-20T14:11:25;3.83;;;1.50;;
21458;SDS011;10891;49.350;19.386;2023-07-20T14:13:52;4.35;;;1.80;;
21458;SDS011;10891;49.350;19.386;2023-07-20T14:16:20;3.30;;;1.60;;
21458;SDS011;10891;49.350;19.386;2023-07-20T14:18:48;3.03;;;1.60;;
21458;SDS011;10891;49.350;19.386;2023-07-20T14:21:15;6.15;;;1.80;;
21458;SDS011;10891;49.350;19.386;2023-07-20T14:23:44;3.17;;;1.65;;
21458;SDS011;10891;49.350;19.386;2023-07-20T14:26:11;3.75;;;1.80;;
21458;SDS011;10891;49.350;19.386;2023-07-20T14:28:40;4.97;;;1.90;;
21458;SDS011;10891;49.350;19.386;2023-07-20T14:31:07;2.53;;;1.58;;
21458;SDS011;10891;49.350;19.386;2023-07-20T14:33:34;3.78;;;2.20;;
21458;SDS011;10891;49.350;19.386;2023-07-20T14:36:02;4.57;;;2.45;;
21458;SDS011;10891;49.350;19.386;2023-07-20T14:38:30;3.30;;;1.77;;
21458;SDS011;10891;49.350;19.386;2023-07-20T14:40:57;40.58;;;4.70;;
21458;SDS011;10891;49.350;19.386;2023-07-20T14:43:24;1.27;;;0.93;;
21458;SDS011;10891;49.350;19.386;2023-07-20T14:45:53;3.78;;;1.60;;
21458;SDS011;10891;49.350;19.386;2023-07-20T14:48:20;3.90;;;1.77;;
21458;SDS011;10891;49.350;19.386;2023-07-20T14:50:47;5.57;;;1.92;;